This is the latest recevied weather packets stored in our database for station/object DC1RS. If no packets are shown the sender has not sent any weather packets the latest 10 day(s).
| Time | Temp. | Humidity | Pressure | Rain* | Wind** | Luminosity | Snow |
|---|---|---|---|---|---|---|---|
| 1777529541 | 6.67° C | 41% | 1031.1 hPa | 0 mm | - | 221 W/m² | - |
| 1777527951 | 6.11° C | 42% | 1030.9 hPa | 0 mm | - | 137 W/m² | - |
| 1777526091 | 5.56° C | 44% | 1030.5 hPa | 0 mm | - | 65 W/m² | - |
| 1777524500 | 4.44° C | 45% | 1030.4 hPa | 0 mm | - | 32 W/m² | - |
| 1777523211 | 4.44° C | 44% | 1030.2 hPa | 0 mm | - | 21 W/m² | - |
| 1777522221 | 3.89° C | 45% | 1030.1 hPa | 0 mm | - | 12 W/m² | - |
| 1777520601 | 3.89° C | 46% | 1029.6 hPa | 0 mm | - | 1 W/m² | - |
| 1777518051 | 3.89° C | 46% | 1029.7 hPa | 0 mm | - | 0 W/m² | - |
| 1777516461 | 4.44° C | 44% | 1029.5 hPa | 0 mm | - | 0 W/m² | - |
| 1777515012 | 4.44° C | 44% | 1029.2 hPa | 0 mm | - | 0 W/m² | - |
| 1777513451 | 4.44° C | 44% | 1029.2 hPa | 0 mm | - | 0 W/m² | - |
| 1777510821 | 5.56° C | 41% | 1028.9 hPa | 0 mm | - | 0 W/m² | - |
| 1777509231 | 5.56° C | 40% | 1028.5 hPa | 0 mm | - | 0 W/m² | - |
| 1777506380 | 6.11° C | 38% | 1028.3 hPa | 0 mm | - | 0 W/m² | - |
| 1777504820 | 6.67° C | 37% | 1028.1 hPa | 0 mm | - | 0 W/m² | - |
| 1777503231 | 7.78° C | 35% | 1028 hPa | 0 mm | - | 0 W/m² | - |
| 1777501641 | 7.78° C | 34% | 1027.7 hPa | 0 mm | - | 0 W/m² | - |
| 1777499621 | 8.33° C | 34% | 1026.7 hPa | 0 mm | - | 0 W/m² | - |
| 1777498032 | 8.89° C | 34% | 1026.3 hPa | 0 mm | - | 0 W/m² | - |
| 1777495641 | 9.44° C | 38% | 1025.9 hPa | 0 mm | - | 0 W/m² | - |
| 1777494050 | 10° C | 41% | 1025.7 hPa | 0 mm | - | 0 W/m² | - |
| 1777493061 | 10.56° C | 40% | 1025.1 hPa | 0 mm | - | 0 W/m² | - |
| 1777492761 | 10.56° C | 41% | 1025.4 hPa | 0 mm | - | 0 W/m² | - |
| 1777489611 | 12.22° C | 38% | 1024.4 hPa | 0 mm | - | 0 W/m² | - |
| 1777488051 | 12.78° C | 37% | 1023.8 hPa | 0 mm | - | 0 W/m² | - |
* Rain latest hour (hover to see other rain measurements)
** Current wind speed in m/s (hover to see current wind gust speed)